Time;durP1;ratioP1;P1;durP2;ratioP2;P2;SDS_P1;SDS_P2;PMS_P1;PMS_P2;Temp;Humidity;BMP_temperature;BMP_pressure;BME280_temperature;BME280_humidity;BME280_pressure;Samples;Min_cycle;Max_cycle;Signal;HPM_P1;HPM_P2
2021/12/10 00:01:57;;;;;;;7.40;6.70;;;1.80;99.90;;;;;;5095343;28;20223;-85
2021/12/10 00:04:35;;;;;;;7.20;6.27;;;1.80;99.90;;;;;;5096472;28;20216;-85
2021/12/10 00:07:07;;;;;;;7.23;6.53;;;1.80;99.90;;;;;;5095944;28;20208;-85
2021/12/10 00:09:39;;;;;;;7.13;6.53;;;1.80;99.90;;;;;;5095280;28;20296;-85
2021/12/10 00:12:18;;;;;;;6.43;5.83;;;1.80;99.90;;;;;;5095429;28;20251;-85
2021/12/10 00:14:47;;;;;;;6.60;6.00;;;1.80;99.90;;;;;;5095517;28;20212;-85
2021/12/10 00:17:18;;;;;;;7.27;6.57;;;1.80;99.90;;;;;;5095448;28;20248;-85
2021/12/10 00:19:51;;;;;;;6.37;5.77;;;1.80;99.90;;;;;;5095062;28;20207;-85
2021/12/10 00:22:24;;;;;;;7.03;6.43;;;1.80;99.90;;;;;;5095330;28;20271;-85
2021/12/10 00:24:54;;;;;;;6.77;6.07;;;1.80;99.90;;;;;;5095387;28;20280;-85
2021/12/10 00:27:29;;;;;;;6.10;5.60;;;1.80;99.90;;;;;;5095005;28;20319;-85
2021/12/10 00:30:05;;;;;;;5.67;5.17;;;1.80;99.90;;;;;;5095014;28;20295;-85
2021/12/10 00:32:38;;;;;;;5.90;5.40;;;1.70;99.90;;;;;;5094240;28;20247;-85
2021/12/10 00:35:10;;;;;;;4.70;4.33;;;1.70;99.90;;;;;;5094826;28;20210;-85
2021/12/10 00:37:39;;;;;;;6.03;5.33;;;1.80;99.90;;;;;;5095165;28;20292;-85
2021/12/10 00:40:10;;;;;;;4.57;4.17;;;1.80;99.90;;;;;;5094422;28;20223;-85
2021/12/10 00:42:40;;;;;;;5.80;5.30;;;1.80;99.90;;;;;;5094083;28;20234;-84
2021/12/10 00:45:12;;;;;;;6.80;6.10;;;1.70;99.90;;;;;;5094671;28;20258;-85
2021/12/10 00:47:41;;;;;;;6.97;5.63;;;1.80;99.90;;;;;;5094763;28;20307;-85
2021/12/10 00:50:14;;;;;;;5.27;4.77;;;1.70;99.90;;;;;;5094341;28;20239;-85
2021/12/10 00:52:43;;;;;;;5.73;5.23;;;1.80;99.90;;;;;;5094750;28;20231;-84
2021/12/10 00:55:13;;;;;;;5.90;5.30;;;1.80;99.90;;;;;;5094745;28;20272;-84
2021/12/10 00:57:45;;;;;;;5.23;4.73;;;1.80;99.90;;;;;;5094847;28;20251;-84
2021/12/10 01:00:23;;;;;;;5.67;5.13;;;1.80;99.90;;;;;;5102751;28;20215;-84
2021/12/10 01:02:52;;;;;;;5.03;4.63;;;1.90;99.90;;;;;;5104554;28;20219;-83
2021/12/10 01:05:22;;;;;;;6.07;5.27;;;1.90;99.90;;;;;;5101801;28;20200;-84
2021/12/10 01:07:51;;;;;;;5.07;4.68;;;1.80;99.90;;;;;;5095176;28;20225;-84
2021/12/10 01:10:25;;;;;;;5.13;4.73;;;1.80;99.90;;;;;;5094531;28;20224;-85
2021/12/10 01:13:00;;;;;;;4.80;4.40;;;1.70;99.90;;;;;;5094947;28;20286;-85
2021/12/10 01:15:51;;;;;;;5.57;5.07;;;1.70;99.90;;;;;;5094392;28;20257;-85
2021/12/10 01:24:07;;;;;;;6.20;5.60;;;1.80;99.90;;;;;;5073298;28;20205;-84
2021/12/10 01:26:55;;;;;;;5.53;5.03;;;1.70;99.90;;;;;;5094126;28;20273;-84
2021/12/10 01:29:28;;;;;;;5.57;5.07;;;1.70;99.90;;;;;;5093498;28;20216;-84
2021/12/10 01:31:57;;;;;;;7.07;5.23;;;1.70;99.90;;;;;;5093736;28;20232;-84
2021/12/10 01:34:26;;;;;;;5.47;4.97;;;1.70;99.90;;;;;;5093994;28;20209;-85
2021/12/10 01:36:55;;;;;;;5.33;4.83;;;1.70;99.90;;;;;;5093872;28;20287;-85
2021/12/10 01:39:27;;;;;;;6.67;6.03;;;1.70;99.90;;;;;;5093270;28;20235;-84
2021/12/10 01:42:03;;;;;;;4.83;4.43;;;1.70;99.90;;;;;;5093650;28;20482;-85
2021/12/10 01:44:36;;;;;;;5.53;5.03;;;1.70;99.90;;;;;;5093103;28;20300;-84
2021/12/10 01:47:13;;;;;;;4.47;4.13;;;1.70;99.90;;;;;;5094136;28;20300;-85
2021/12/10 01:49:43;;;;;;;5.63;5.10;;;1.70;99.90;;;;;;5093310;28;20204;-85
2021/12/10 01:52:12;;;;;;;5.60;5.10;;;1.70;99.90;;;;;;5093499;28;20231;-85
2021/12/10 01:54:45;;;;;;;6.10;5.03;;;1.80;99.90;;;;;;5093788;28;20239;-85
2021/12/10 01:57:15;;;;;;;6.83;6.23;;;1.80;99.90;;;;;;5093483;28;20214;-85
2021/12/10 01:59:47;;;;;;;4.93;4.53;;;1.80;99.90;;;;;;5092853;28;20299;-85
2021/12/10 02:02:26;;;;;;;4.93;4.53;;;1.80;99.90;;;;;;5092986;28;20232;-85
2021/12/10 02:04:55;;;;;;;4.50;4.13;;;1.80;99.90;;;;;;5092879;28;20204;-87
2021/12/10 02:07:26;;;;;;;4.17;3.87;;;1.80;99.90;;;;;;5093043;28;20224;-85
2021/12/10 02:09:55;;;;;;;4.63;4.23;;;1.80;99.90;;;;;;5092906;28;20224;-85
2021/12/10 02:12:25;;;;;;;4.63;4.23;;;1.80;99.90;;;;;;5093182;28;20193;-85
2021/12/10 02:15:01;;;;;;;5.00;4.27;;;1.80;99.90;;;;;;5093304;28;20208;-85
2021/12/10 02:17:36;;;;;;;5.00;4.60;;;1.70;99.90;;;;;;5092972;28;20228;-85
2021/12/10 02:20:10;;;;;;;4.23;3.93;;;1.70;99.90;;;;;;5093027;28;20208;-85
2021/12/10 02:22:51;;;;;;;;;;;;;;;;;;;;;
2021/12/10 02:25:23;;;;;;;6.30;5.43;;;1.80;99.90;;;;;;5093194;28;20204;-85
2021/12/10 02:27:53;;;;;;;5.80;5.10;;;1.70;99.90;;;;;;5093137;28;20228;-84
2021/12/10 02:30:29;;;;;;;4.77;4.37;;;1.80;99.90;;;;;;5092509;28;20208;-84
2021/12/10 02:32:58;;;;;;;5.80;5.27;;;1.80;99.90;;;;;;5092769;28;20204;-85
2021/12/10 02:35:28;;;;;;;5.70;5.20;;;1.80;99.90;;;;;;5092996;28;20208;-84
2021/12/10 02:37:58;;;;;;;5.10;4.60;;;1.90;99.90;;;;;;5092749;28;20311;-85
2021/12/10 02:40:29;;;;;;;5.73;5.10;;;1.90;99.90;;;;;;5092460;28;20300;-85
2021/12/10 02:43:01;;;;;;;4.77;4.27;;;1.80;99.90;;;;;;5092732;28;20220;-84
2021/12/10 02:45:29;;;;;;;4.60;4.20;;;1.80;99.90;;;;;;5092716;28;20235;-84
2021/12/10 02:47:59;;;;;;;5.33;4.93;;;1.90;99.90;;;;;;5092622;28;20224;-84
2021/12/10 02:50:30;;;;;;;6.07;5.47;;;1.90;99.90;;;;;;5092281;28;20196;-85
2021/12/10 02:53:02;;;;;;;5.07;4.67;;;1.90;99.90;;;;;;5092909;28;20246;-85
2021/12/10 02:55:32;;;;;;;5.47;5.03;;;1.90;99.90;;;;;;5095248;28;20264;-85
2021/12/10 02:58:06;;;;;;;5.77;5.27;;;1.80;99.90;;;;;;5096690;28;20315;-84
2021/12/10 03:00:43;;;;;;;5.67;5.17;;;1.80;99.90;;;;;;5096394;28;20294;-85
2021/12/10 03:03:12;;;;;;;5.97;5.37;;;1.90;99.90;;;;;;5096432;28;20261;-85
2021/12/10 03:05:41;;;;;;;5.43;4.93;;;1.80;99.90;;;;;;5122025;22;20240;-82
2021/12/10 03:08:10;;;;;;;6.70;6.00;;;1.80;99.90;;;;;;5076200;28;20286;-83
2021/12/10 03:10:40;;;;;;;5.67;5.07;;;1.80;99.90;;;;;;5075699;28;20223;-82
2021/12/10 03:13:16;;;;;;;7.57;6.23;;;1.80;99.90;;;;;;5075911;28;20209;-82
2021/12/10 03:15:47;;;;;;;6.50;5.43;;;1.80;99.90;;;;;;5076147;28;20224;-82
2021/12/10 03:18:18;;;;;;;6.63;5.93;;;1.80;99.90;;;;;;5076463;28;20225;-82
2021/12/10 03:20:47;;;;;;;5.65;4.95;;;1.80;99.90;;;;;;5075363;28;20285;-82
2021/12/10 03:23:18;;;;;;;5.10;4.70;;;1.70;99.90;;;;;;5075536;28;20312;-82
2021/12/10 03:25:47;;;;;;;6.03;5.43;;;1.70;99.90;;;;;;5075655;28;20220;-82
2021/12/10 03:28:16;;;;;;;6.13;4.67;;;1.70;99.90;;;;;;5075723;28;20229;-82
2021/12/10 03:30:47;;;;;;;7.60;5.93;;;1.70;99.90;;;;;;5075391;28;20216;-82
2021/12/10 03:33:16;;;;;;;7.53;5.20;;;1.70;99.90;;;;;;5075277;28;20212;-82
2021/12/10 03:35:47;;;;;;;4.73;4.33;;;1.70;99.90;;;;;;5075625;28;20225;-82
2021/12/10 03:38:20;;;;;;;5.53;5.03;;;1.70;99.90;;;;;;5075672;28;20212;-82
2021/12/10 03:40:52;;;;;;;6.03;5.33;;;1.70;99.90;;;;;;5074663;28;20201;-82
2021/12/10 03:43:23;;;;;;;5.03;4.63;;;1.70;99.90;;;;;;5075412;28;20221;-82
2021/12/10 03:45:54;;;;;;;4.47;4.13;;;1.70;99.90;;;;;;5075817;28;20245;-82
2021/12/10 03:48:27;;;;;;;5.87;5.27;;;1.70;99.90;;;;;;5075777;28;20201;-82
2021/12/10 03:51:02;;;;;;;5.50;5.00;;;1.70;99.90;;;;;;5074830;28;20254;-82
2021/12/10 03:53:32;;;;;;;4.87;4.37;;;1.70;99.90;;;;;;5075502;28;20224;-82
2021/12/10 03:56:04;;;;;;;6.20;4.47;;;1.80;99.90;;;;;;5075409;28;20250;-82
2021/12/10 03:58:33;;;;;;;4.70;4.30;;;1.70;99.90;;;;;;5075975;28;20265;-82
2021/12/10 04:01:03;;;;;;;6.63;4.60;;;1.70;99.90;;;;;;5075119;28;20391;-82
2021/12/10 04:03:33;;;;;;;4.93;4.30;;;1.70;99.90;;;;;;5074704;28;20224;-82
2021/12/10 04:06:04;;;;;;;4.30;3.90;;;1.80;99.90;;;;;;5074184;28;20316;-82
2021/12/10 04:08:37;;;;;;;5.07;4.67;;;1.80;99.90;;;;;;5074904;28;20201;-82
2021/12/10 04:11:09;;;;;;;5.07;4.57;;;1.70;99.90;;;;;;5075205;28;20224;-82
2021/12/10 04:13:39;;;;;;;4.33;3.93;;;1.70;99.90;;;;;;5074966;28;20296;-82
2021/12/10 04:16:08;;;;;;;4.23;3.83;;;1.80;99.90;;;;;;5074583;28;20275;-82
2021/12/10 04:18:39;;;;;;;7.07;4.67;;;1.80;99.90;;;;;;5074535;28;20201;-82
2021/12/10 04:21:12;;;;;;;4.93;3.90;;;1.80;99.90;;;;;;5075071;28;20204;-82
2021/12/10 04:23:42;;;;;;;4.50;3.70;;;1.70;99.90;;;;;;5074677;28;20244;-82
2021/12/10 04:26:12;;;;;;;5.07;4.60;;;1.70;99.90;;;;;;5074977;28;20225;-82
2021/12/10 04:28:41;;;;;;;4.17;3.87;;;1.70;99.90;;;;;;5074171;28;20285;-82
2021/12/10 04:31:10;;;;;;;5.47;4.40;;;1.70;99.90;;;;;;5074655;28;20209;-82
2021/12/10 04:33:41;;;;;;;4.60;4.20;;;1.70;99.90;;;;;;5074594;28;20254;-82
2021/12/10 04:36:14;;;;;;;7.70;5.10;;;1.60;99.90;;;;;;5074491;28;20255;-82
2021/12/10 04:38:44;;;;;;;3.73;3.43;;;1.60;99.90;;;;;;5073963;28;20243;-82
2021/12/10 04:41:14;;;;;;;3.87;3.57;;;1.60;99.90;;;;;;5074280;28;20202;-82
2021/12/10 04:43:44;;;;;;;3.93;3.60;;;1.60;99.90;;;;;;5074399;28;20308;-82
2021/12/10 04:46:13;;;;;;;4.70;4.27;;;1.60;99.90;;;;;;5074583;28;20287;-82
2021/12/10 04:48:51;;;;;;;5.07;4.33;;;1.60;99.90;;;;;;5074315;28;20201;-82
2021/12/10 04:51:28;;;;;;;4.63;4.23;;;1.60;99.90;;;;;;5074472;28;20236;-82
2021/12/10 04:53:59;;;;;;;3.97;3.60;;;1.60;99.90;;;;;;5074382;28;20288;-82
2021/12/10 04:56:29;;;;;;;6.37;5.60;;;1.50;99.90;;;;;;5074107;28;20229;-82
2021/12/10 04:58:58;;;;;;;5.63;5.03;;;1.60;99.90;;;;;;5073641;28;20248;-82
2021/12/10 05:01:28;;;;;;;4.47;4.13;;;1.50;99.90;;;;;;5073997;28;20205;-82
2021/12/10 05:04:00;;;;;;;4.93;4.50;;;1.50;99.90;;;;;;5073554;28;20237;-82
2021/12/10 05:06:30;;;;;;;5.73;4.90;;;1.40;99.90;;;;;;5073890;28;20233;-82
2021/12/10 05:09:01;;;;;;;4.77;4.37;;;1.50;99.90;;;;;;5073526;28;20241;-82
2021/12/10 05:11:29;;;;;;;5.00;4.50;;;1.40;99.90;;;;;;5073932;28;20209;-82
2021/12/10 05:13:58;;;;;;;6.17;5.57;;;1.40;99.90;;;;;;5073625;28;20215;-82
2021/12/10 05:16:27;;;;;;;4.63;4.23;;;1.40;99.90;;;;;;5073740;28;20378;-82
2021/12/10 05:19:00;;;;;;;5.00;4.50;;;1.40;99.90;;;;;;5073663;28;20205;-82
2021/12/10 05:21:30;;;;;;;5.03;4.47;;;1.30;99.90;;;;;;5073608;28;20236;-81
2021/12/10 05:24:01;;;;;;;5.20;4.47;;;1.30;99.90;;;;;;5073264;28;20244;-82
2021/12/10 05:26:29;;;;;;;5.83;5.23;;;1.20;99.90;;;;;;5073193;28;20233;-82
2021/12/10 05:29:00;;;;;;;6.57;5.20;;;1.10;99.90;;;;;;5073046;28;20212;-82
2021/12/10 05:31:29;;;;;;;6.13;5.50;;;1.00;99.90;;;;;;5073980;28;20201;-82
2021/12/10 05:33:58;;;;;;;6.63;5.63;;;1.00;99.90;;;;;;5073288;28;20201;-82
2021/12/10 05:36:27;;;;;;;4.93;4.43;;;0.90;99.90;;;;;;5073380;28;20221;-82
2021/12/10 05:38:55;;;;;;;5.53;4.90;;;0.70;99.90;;;;;;5072823;28;20208;-82
2021/12/10 05:41:26;;;;;;;5.33;4.83;;;0.60;99.90;;;;;;5072789;28;20298;-81
2021/12/10 05:43:54;;;;;;;5.10;4.70;;;0.60;99.90;;;;;;5072943;28;20225;-82
2021/12/10 05:46:29;;;;;;;4.60;4.20;;;0.50;99.90;;;;;;5073294;28;20298;-82
2021/12/10 05:48:58;;;;;;;4.90;3.80;;;0.50;99.90;;;;;;5072284;28;20239;-81
2021/12/10 05:51:26;;;;;;;4.73;4.33;;;0.40;99.90;;;;;;5073592;28;20205;-82
2021/12/10 05:53:55;;;;;;;5.80;5.20;;;0.40;99.90;;;;;;5072980;28;20292;-81
2021/12/10 05:56:25;;;;;;;9.13;5.03;;;0.40;99.90;;;;;;5072804;28;20311;-82
2021/12/10 05:58:54;;;;;;;5.50;4.63;;;0.30;99.90;;;;;;5072087;28;20250;-88
2021/12/10 06:01:24;;;;;;;4.00;3.70;;;0.30;99.90;;;;;;5073451;28;20296;-90
2021/12/10 06:03:53;;;;;;;4.20;3.87;;;0.30;99.90;;;;;;5072661;28;20297;-83
2021/12/10 06:06:25;;;;;;;5.30;4.10;;;0.30;99.90;;;;;;5072895;28;20263;-83
2021/12/10 06:08:55;;;;;;;4.10;3.80;;;0.20;99.90;;;;;;5072364;28;20295;-83
2021/12/10 06:11:29;;;;;;;4.87;4.33;;;0.20;99.90;;;;;;5072968;28;20213;-83
2021/12/10 06:13:57;;;;;;;4.87;4.37;;;0.20;99.90;;;;;;5072884;28;20209;-83
2021/12/10 06:16:26;;;;;;;4.77;4.30;;;0.20;99.90;;;;;;5072128;28;20285;-83
2021/12/10 06:18:54;;;;;;;5.80;4.53;;;0.20;99.90;;;;;;5072069;28;20232;-83
2021/12/10 06:21:23;;;;;;;4.37;3.97;;;0.20;99.90;;;;;;5072371;28;20205;-83
2021/12/10 06:23:52;;;;;;;4.57;4.17;;;0.20;99.90;;;;;;5072780;28;20201;-83
2021/12/10 06:26:20;;;;;;;5.03;4.53;;;0.20;99.90;;;;;;5072442;28;20247;-83
2021/12/10 06:28:50;;;;;;;3.33;3.13;;;0.20;99.90;;;;;;5072313;28;20213;-82
2021/12/10 06:31:21;;;;;;;5.37;4.73;;;0.20;99.90;;;;;;5072505;28;20220;-82
2021/12/10 06:33:50;;;;;;;5.63;4.23;;;0.20;99.90;;;;;;5072352;28;20231;-81
2021/12/10 06:36:20;;;;;;;4.40;3.93;;;0.20;99.90;;;;;;5072325;28;20346;-82
2021/12/10 06:38:49;;;;;;;10.47;5.20;;;0.20;99.90;;;;;;5072005;28;20197;-81
2021/12/10 06:41:20;;;;;;;4.57;4.13;;;0.20;99.90;;;;;;5072348;28;20209;-82
2021/12/10 06:43:54;;;;;;;4.50;4.10;;;0.30;99.90;;;;;;5072365;28;20209;-81
2021/12/10 06:46:23;;;;;;;7.30;4.60;;;0.30;99.90;;;;;;5071957;28;20311;-82
2021/12/10 06:48:52;;;;;;;6.53;5.00;;;0.30;99.90;;;;;;5071949;28;20201;-81
2021/12/10 06:51:22;;;;;;;5.00;4.60;;;0.20;99.90;;;;;;5072297;28;20288;-81
2021/12/10 06:53:51;;;;;;;6.97;5.43;;;0.20;99.90;;;;;;5072083;28;20287;-81
2021/12/10 06:56:21;;;;;;;7.27;5.17;;;0.20;99.90;;;;;;5072546;28;20233;-81
2021/12/10 06:58:50;;;;;;;5.50;5.00;;;0.20;99.90;;;;;;5071835;28;20209;-81
2021/12/10 07:01:24;;;;;;;6.77;5.23;;;0.20;99.90;;;;;;5072807;28;20284;-81
2021/12/10 07:03:54;;;;;;;6.30;5.40;;;0.20;99.90;;;;;;5071918;28;20205;-81
2021/12/10 07:06:24;;;;;;;7.40;5.27;;;0.20;99.90;;;;;;5071666;28;20317;-81
2021/12/10 07:08:54;;;;;;;5.87;4.93;;;0.20;99.90;;;;;;5071688;28;20205;-81
2021/12/10 07:11:24;;;;;;;4.93;4.50;;;0.30;99.90;;;;;;5072125;28;20216;-81
2021/12/10 07:13:55;;;;;;;6.53;5.60;;;0.30;99.90;;;;;;5072055;28;20246;-81
2021/12/10 07:16:28;;;;;;;5.33;4.90;;;0.30;99.90;;;;;;5071685;28;20235;-81
2021/12/10 07:18:58;;;;;;;5.87;5.27;;;0.20;99.90;;;;;;5071067;28;20201;-81
2021/12/10 07:21:29;;;;;;;9.03;5.83;;;0.30;99.90;;;;;;5072076;28;20206;-82
2021/12/10 07:23:59;;;;;;;6.80;5.33;;;0.30;99.90;;;;;;5072599;28;20201;-81
2021/12/10 07:26:27;;;;;;;5.13;4.63;;;0.20;99.90;;;;;;5072232;28;20312;-81
2021/12/10 07:28:56;;;;;;;4.77;4.37;;;0.20;99.90;;;;;;5071546;28;20299;-81
2021/12/10 07:31:27;;;;;;;5.40;4.87;;;0.10;99.90;;;;;;5072469;28;20220;-91
2021/12/10 07:33:56;;;;;;;6.10;5.13;;;0.10;99.90;;;;;;5072584;28;20285;-92
2021/12/10 07:36:25;;;;;;;6.33;4.77;;;0.10;99.90;;;;;;5072083;28;20309;-91
2021/12/10 07:38:56;;;;;;;5.27;4.77;;;0.10;99.90;;;;;;5072387;28;20270;-92
2021/12/10 07:41:25;;;;;;;7.03;4.83;;;0.10;99.90;;;;;;5072982;28;20211;-91
2021/12/10 07:43:54;;;;;;;5.90;5.17;;;0.20;99.90;;;;;;5076205;28;20205;-92
2021/12/10 07:46:27;;;;;;;6.60;5.13;;;0.20;99.90;;;;;;5077129;28;20292;-92
2021/12/10 07:48:57;;;;;;;5.27;4.77;;;0.20;99.90;;;;;;5075878;28;20305;-91
2021/12/10 07:51:28;;;;;;;7.03;5.23;;;0.20;99.90;;;;;;5085576;28;20236;-92
2021/12/10 07:53:59;;;;;;;4.73;4.33;;;0.20;99.90;;;;;;5098097;28;20188;-91
2021/12/10 07:56:30;;;;;;;4.33;3.97;;;0.20;99.90;;;;;;5080771;28;20263;-92
2021/12/10 07:59:00;;;;;;;5.07;4.43;;;0.30;99.90;;;;;;5076379;28;20227;-92
2021/12/10 08:01:33;;;;;;;6.90;5.40;;;0.30;99.90;;;;;;5075896;28;20219;-92
2021/12/10 08:04:04;;;;;;;5.10;4.67;;;0.30;99.90;;;;;;5075031;28;20205;-82
2021/12/10 08:06:33;;;;;;;7.27;5.50;;;0.30;99.90;;;;;;5074682;28;20229;-82
2021/12/10 08:09:04;;;;;;;5.77;5.27;;;0.30;99.90;;;;;;5074694;28;20296;-82
2021/12/10 08:11:32;;;;;;;7.10;5.20;;;0.40;99.90;;;;;;5075151;28;20251;-82
2021/12/10 08:14:01;;;;;;;5.40;4.90;;;0.40;99.90;;;;;;5075077;28;20228;-81
2021/12/10 08:16:32;;;;;;;7.83;5.80;;;0.40;99.90;;;;;;5075089;28;20292;-82
2021/12/10 08:19:00;;;;;;;7.03;5.37;;;0.40;99.90;;;;;;5074611;28;20213;-82
2021/12/10 08:21:29;;;;;;;9.90;5.90;;;0.50;99.90;;;;;;5074892;28;20204;-82
2021/12/10 08:23:57;;;;;;;6.67;5.50;;;0.50;99.90;;;;;;5074912;28;20197;-82
2021/12/10 08:26:27;;;;;;;4.87;4.37;;;0.60;99.90;;;;;;5074378;28;20245;-82
2021/12/10 08:28:55;;;;;;;7.00;5.53;;;0.60;99.90;;;;;;5074300;28;20268;-82
2021/12/10 08:31:24;;;;;;;6.60;5.27;;;0.60;99.90;;;;;;5074966;28;20244;-82
2021/12/10 08:33:54;;;;;;;7.80;5.53;;;0.70;99.90;;;;;;5074821;28;20197;-82
2021/12/10 08:36:24;;;;;;;5.77;5.23;;;0.70;99.90;;;;;;5074396;28;20336;-82
2021/12/10 08:38:53;;;;;;;6.57;5.57;;;0.70;99.90;;;;;;5073841;28;20208;-82
2021/12/10 08:41:24;;;;;;;7.63;5.23;;;0.80;99.90;;;;;;5074800;28;20201;-82
2021/12/10 08:43:54;;;;;;;6.07;5.47;;;0.80;99.90;;;;;;5074549;28;20204;-82
2021/12/10 08:46:22;;;;;;;5.20;4.70;;;0.80;99.90;;;;;;5074226;28;20245;-82
2021/12/10 08:48:52;;;;;;;5.60;5.10;;;0.90;99.90;;;;;;5073941;28;20205;-82
2021/12/10 08:51:25;;;;;;;5.10;4.60;;;0.90;99.90;;;;;;5074327;28;20218;-82
2021/12/10 08:53:54;;;;;;;7.17;5.53;;;1.00;99.90;;;;;;5073782;28;20208;-82
2021/12/10 08:56:23;;;;;;;4.47;4.07;;;1.00;99.90;;;;;;5074187;28;20221;-82
2021/12/10 08:58:52;;;;;;;7.73;6.03;;;1.00;99.90;;;;;;5073588;28;20232;-82
2021/12/10 09:01:26;;;;;;;9.90;4.80;;;1.10;99.90;;;;;;5074454;28;20239;-82
2021/12/10 09:03:57;;;;;;;3.97;3.67;;;1.10;99.90;;;;;;5073916;28;20215;-82
2021/12/10 09:06:31;;;;;;;4.00;3.60;;;1.20;99.90;;;;;;5073263;28;20239;-82
2021/12/10 09:09:00;;;;;;;5.43;4.07;;;1.20;99.90;;;;;;5073508;28;20211;-82
2021/12/10 09:11:29;;;;;;;4.73;3.73;;;1.30;99.90;;;;;;5074451;28;20259;-82
2021/12/10 09:14:18;;;;;;;3.47;3.17;;;1.40;99.90;;;;;;5073482;28;20215;-82
2021/12/10 09:16:47;;;;;;;3.17;2.83;;;1.40;99.90;;;;;;5073746;28;20306;-82
2021/12/10 09:19:17;;;;;;;6.67;3.63;;;1.50;99.90;;;;;;5073464;28;20205;-82
2021/12/10 09:21:47;;;;;;;3.87;3.50;;;1.50;99.90;;;;;;5074148;28;20224;-82
2021/12/10 09:24:18;;;;;;;3.97;3.67;;;1.60;99.90;;;;;;5073868;28;20205;-82
2021/12/10 09:26:49;;;;;;;3.43;3.13;;;1.70;99.90;;;;;;5073015;28;20245;-82
2021/12/10 09:29:18;;;;;;;4.70;3.03;;;1.60;99.90;;;;;;5072669;28;20288;-82
2021/12/10 09:31:48;;;;;;;3.37;3.07;;;1.70;99.90;;;;;;5073109;28;20277;-82
2021/12/10 09:34:18;;;;;;;3.57;3.27;;;1.70;99.90;;;;;;5073405;28;20258;-82
2021/12/10 09:36:49;;;;;;;4.00;3.43;;;1.80;99.90;;;;;;5073336;28;20309;-81
2021/12/10 09:39:20;;;;;;;4.20;3.77;;;1.80;99.90;;;;;;5072570;28;20273;-82
2021/12/10 09:41:49;;;;;;;4.37;3.40;;;1.80;99.90;;;;;;5073002;28;20264;-82
2021/12/10 09:44:18;;;;;;;4.87;3.83;;;1.80;99.90;;;;;;5073110;28;20296;-82
2021/12/10 09:46:49;;;;;;;3.93;3.60;;;1.80;99.90;;;;;;5073043;28;20229;-81
2021/12/10 09:49:18;;;;;;;4.43;4.03;;;1.90;99.90;;;;;;5072480;28;20232;-82
2021/12/10 09:51:51;;;;;;;3.80;3.47;;;1.90;99.90;;;;;;5073004;28;20205;-82
2021/12/10 09:54:23;;;;;;;4.03;3.63;;;1.90;99.90;;;;;;5073364;28;20209;-82
2021/12/10 09:56:58;;;;;;;3.60;3.30;;;2.00;99.90;;;;;;5073075;28;20221;-82
2021/12/10 09:59:27;;;;;;;3.60;3.30;;;2.10;99.90;;;;;;5072396;28;20306;-82
2021/12/10 10:01:57;;;;;;;5.93;4.33;;;2.20;99.90;;;;;;5072529;28;20288;-82
2021/12/10 10:04:28;;;;;;;5.13;4.33;;;2.30;99.90;;;;;;5072378;28;20225;-82
2021/12/10 10:07:01;;;;;;;4.43;3.60;;;2.30;99.90;;;;;;5072479;28;20229;-81
2021/12/10 10:09:30;;;;;;;4.70;4.23;;;2.30;99.90;;;;;;5072348;28;20204;-82
2021/12/10 10:12:02;;;;;;;6.53;5.13;;;2.30;99.90;;;;;;5072823;28;20232;-82
2021/12/10 10:14:31;;;;;;;4.83;4.43;;;2.50;99.90;;;;;;5072772;28;20271;-82
2021/12/10 10:17:01;;;;;;;6.57;5.40;;;2.60;99.90;;;;;;5073088;28;20225;-82
2021/12/10 10:19:29;;;;;;;7.63;4.77;;;2.70;99.90;;;;;;5072253;28;20270;-81
2021/12/10 10:22:00;;;;;;;4.87;4.47;;;2.90;99.90;;;;;;5072494;28;20209;-82
2021/12/10 10:24:30;;;;;;;5.30;4.80;;;3.00;99.90;;;;;;5073128;28;20239;-81
2021/12/10 10:27:05;;;;;;;5.83;5.27;;;3.20;99.90;;;;;;5072387;28;20234;-81
2021/12/10 10:29:38;;;;;;;6.30;5.80;;;3.60;99.90;;;;;;5072360;28;20235;-81
2021/12/10 10:32:10;;;;;;;6.37;5.77;;;3.80;99.90;;;;;;5072515;28;20276;-81
2021/12/10 10:34:42;;;;;;;6.70;5.70;;;4.30;99.90;;;;;;5072110;28;20236;-82
2021/12/10 10:37:12;;;;;;;7.50;6.63;;;4.30;99.90;;;;;;5072558;28;20217;-81
2021/12/10 10:39:43;;;;;;;7.05;6.40;;;4.60;99.90;;;;;;5071849;28;20205;-81
2021/12/10 10:42:20;;;;;;;10.13;7.00;;;4.80;99.90;;;;;;5072043;28;20209;-82
2021/12/10 10:44:57;;;;;;;8.15;7.35;;;4.90;99.90;;;;;;5072462;28;20216;-81
2021/12/10 10:47:27;;;;;;;8.55;7.20;;;4.80;99.90;;;;;;5072204;28;20258;-81
2021/12/10 10:49:59;;;;;;;9.13;7.57;;;5.00;99.90;;;;;;5071996;28;20208;-81
2021/12/10 10:52:32;;;;;;;13.10;7.95;;;5.10;99.90;;;;;;5072635;28;20207;-81
2021/12/10 10:55:20;;;;;;;7.90;7.10;;;4.80;99.90;;;;;;5072341;28;20235;-81
2021/12/10 10:57:53;;;;;;;10.57;8.02;;;4.60;99.90;;;;;;5072054;28;20209;-81
2021/12/10 11:00:32;;;;;;;8.50;7.68;;;4.60;99.90;;;;;;5071375;28;20205;-81
2021/12/10 11:03:14;;;;;;;9.32;7.95;;;4.90;99.90;;;;;;5072181;28;20205;-81
2021/12/10 11:05:51;;;;;;;11.65;8.52;;;4.90;99.90;;;;;;5071811;28;20236;-80
2021/12/10 11:08:30;;;;;;;7.97;7.18;;;4.50;99.90;;;;;;5071990;28;20216;-80
2021/12/10 11:11:11;;;;;;;9.43;7.18;;;4.50;99.90;;;;;;5071778;28;20257;-80
2021/12/10 11:13:40;;;;;;;10.05;8.57;;;4.90;99.90;;;;;;5072163;28;20201;-80
2021/12/10 11:16:12;;;;;;;10.10;7.97;;;4.70;99.90;;;;;;5073727;28;20255;-80
2021/12/10 11:18:46;;;;;;;7.28;6.57;;;4.60;99.90;;;;;;5075458;28;20197;-79
2021/12/10 11:21:16;;;;;;;8.18;7.32;;;4.40;99.90;;;;;;5075922;28;20220;-80
2021/12/10 11:23:46;;;;;;;8.50;7.15;;;4.20;99.90;;;;;;5076131;28;20269;-80
2021/12/10 11:26:14;;;;;;;10.02;7.38;;;4.40;99.90;;;;;;5077450;28;20286;-90
2021/12/10 11:28:44;;;;;;;9.50;7.57;;;4.40;99.90;;;;;;5074947;28;20224;-80
2021/12/10 11:31:20;;;;;;;8.15;7.35;;;4.60;99.90;;;;;;5075937;28;20284;-79
2021/12/10 11:33:51;;;;;;;8.68;7.60;;;4.70;99.90;;;;;;5084045;28;20211;-89
2021/12/10 11:36:23;;;;;;;8.20;7.40;;;4.90;99.90;;;;;;5075825;28;20286;-80
2021/12/10 11:39:00;;;;;;;9.50;8.50;;;5.40;99.90;;;;;;5075082;28;20197;-80
2021/12/10 11:41:31;;;;;;;11.65;9.13;;;5.20;99.90;;;;;;5075410;28;20196;-80
2021/12/10 11:44:19;;;;;;;9.80;8.80;;;4.90;99.90;;;;;;5075808;28;20280;-80
2021/12/10 11:47:02;;;;;;;14.10;9.60;;;4.90;99.90;;;;;;5075659;28;20305;-80
2021/12/10 11:49:38;;;;;;;12.95;10.75;;;4.80;99.90;;;;;;5074888;28;20193;-80
2021/12/10 11:52:09;;;;;;;10.75;9.43;;;4.90;99.90;;;;;;5075398;28;20212;-80
2021/12/10 11:54:45;;;;;;;12.60;10.63;;;5.00;99.90;;;;;;5075237;28;20204;-80
2021/12/10 11:57:17;;;;;;;13.27;10.70;;;5.10;99.90;;;;;;5075506;28;20248;-80
2021/12/10 11:59:48;;;;;;;11.23;9.25;;;4.70;99.90;;;;;;5075012;28;20212;-80
2021/12/10 12:02:23;;;;;;;11.52;9.77;;;4.40;99.90;;;;;;5075254;28;20276;-80
2021/12/10 12:04:54;;;;;;;11.30;10.10;;;4.00;99.90;;;;;;5075081;28;20216;-80
2021/12/10 12:07:30;;;;;;;8.80;7.90;;;3.70;99.90;;;;;;5075191;28;20260;-80
2021/12/10 12:10:06;;;;;;;15.38;10.57;;;3.40;99.90;;;;;;5075145;28;20208;-87
2021/12/10 12:12:40;;;;;;;9.95;8.95;;;2.90;99.90;;;;;;5074964;28;20287;-88
2021/12/10 12:15:14;;;;;;;11.37;9.97;;;2.50;99.90;;;;;;5074961;28;20209;-88
2021/12/10 12:17:46;;;;;;;14.90;8.93;;;2.30;99.90;;;;;;5075269;28;20239;-88
2021/12/10 12:20:41;;;;;;;16.00;10.87;;;2.20;99.90;;;;;;5074872;28;20209;-88
2021/12/10 12:26:06;;;;;;;13.67;10.47;;;2.00;99.90;;;;;;5074909;28;20247;-80
2021/12/10 12:28:50;;;;;;;11.47;10.27;;;2.00;99.90;;;;;;5073458;28;20220;-80
2021/12/10 12:31:40;;;;;;;13.80;10.97;;;2.00;99.90;;;;;;5075058;28;20205;-80
2021/12/10 12:34:13;;;;;;;13.70;10.73;;;1.90;99.90;;;;;;5074806;28;20209;-80
2021/12/10 12:36:54;;;;;;;18.10;12.30;;;1.70;99.90;;;;;;5074317;28;20304;-82
2021/12/10 12:39:38;;;;;;;12.57;9.93;;;1.70;99.90;;;;;;5074265;28;20200;-80
2021/12/10 12:42:19;;;;;;;12.47;11.00;;;1.80;99.90;;;;;;5074864;28;20213;-80
2021/12/10 12:44:50;;;;;;;11.70;10.13;;;1.80;99.90;;;;;;5074607;28;20208;-80
2021/12/10 12:47:40;;;;;;;12.67;11.33;;;1.80;99.90;;;;;;5074561;28;20217;-80
2021/12/10 12:50:12;;;;;;;14.50;11.30;;;1.80;99.90;;;;;;5073837;28;20296;-80
2021/12/10 12:52:44;;;;;;;22.83;11.50;;;1.80;99.90;;;;;;5074298;28;20236;-80
2021/12/10 12:55:30;;;;;;;23.52;11.50;;;1.90;99.90;;;;;;5074330;28;20282;-80
2021/12/10 12:58:15;;;;;;;14.13;10.93;;;2.00;99.90;;;;;;5074227;28;20239;-80
2021/12/10 13:01:10;;;;;;;13.03;11.13;;;2.00;99.90;;;;;;5074330;28;20223;-80
2021/12/10 13:03:43;;;;;;;11.80;10.20;;;2.00;99.90;;;;;;5074208;28;20215;-80
2021/12/10 13:06:37;;;;;;;11.43;10.07;;;2.00;99.90;;;;;;5073557;28;20239;-79
2021/12/10 13:09:11;;;;;;;11.47;9.50;;;2.10;99.90;;;;;;5073246;28;20225;-79
2021/12/10 13:11:53;;;;;;;10.57;9.43;;;2.10;99.90;;;;;;5074043;28;20209;-80
2021/12/10 13:14:31;;;;;;;14.20;10.70;;;2.10;99.90;;;;;;5074183;28;20213;-80
2021/12/10 13:17:09;;;;;;;18.47;11.23;;;2.10;99.90;;;;;;5074207;28;20280;-80
2021/12/10 13:19:38;;;;;;;15.33;10.77;;;2.10;99.90;;;;;;5073039;28;20197;-80
2021/12/10 13:22:10;;;;;;;12.80;10.90;;;2.20;99.90;;;;;;5073690;28;20208;-80
2021/12/10 13:24:42;;;;;;;15.50;12.05;;;2.40;99.90;;;;;;5073631;28;20201;-80
2021/12/10 13:27:12;;;;;;;15.90;12.33;;;2.60;99.90;;;;;;5073768;28;20312;-80
2021/12/10 13:30:07;;;;;;;14.47;11.40;;;2.70;99.90;;;;;;5072785;28;20225;-80